createdAt,value
2022-12-05T07:29:31.024Z,17.60
2022-12-05T07:31:57.905Z,15.65
2022-12-05T07:34:24.588Z,14.70
2022-12-05T07:36:53.614Z,14.40
2022-12-05T07:39:20.304Z,13.50
2022-12-05T07:41:47.083Z,14.13
2022-12-05T07:44:16.824Z,14.55
2022-12-05T07:46:43.566Z,12.70
2022-12-05T07:49:10.438Z,13.65
2022-12-05T07:52:02.281Z,12.25
2022-12-05T07:54:28.991Z,12.52
2022-12-05T07:56:55.814Z,12.40
2022-12-05T07:59:22.496Z,12.52
2022-12-05T08:01:50.542Z,12.93
2022-12-05T08:04:17.824Z,11.35
2022-12-05T08:06:44.615Z,12.10
2022-12-05T08:09:11.538Z,11.90
2022-12-05T08:11:38.350Z,11.43
2022-12-05T08:14:06.130Z,10.55
2022-12-05T08:16:33.248Z,12.02
2022-12-05T08:19:02.737Z,10.77
2022-12-05T08:21:30.073Z,10.43
2022-12-05T08:23:57.208Z,10.27
2022-12-05T08:26:29.444Z,11.50
2022-12-05T08:29:09.577Z,10.60
2022-12-05T08:31:41.012Z,9.52
2022-12-05T08:34:08.049Z,10.80
2022-12-05T08:36:34.735Z,11.20
2022-12-05T08:39:04.194Z,10.50
2022-12-05T08:41:31.406Z,11.27
2022-12-05T08:44:01.417Z,10.77
2022-12-05T08:46:28.251Z,11.20
2022-12-05T08:48:55.348Z,10.88
2022-12-05T08:51:22.011Z,11.52
2022-12-05T08:53:49.713Z,10.55
2022-12-05T08:56:16.413Z,12.02
2022-12-05T08:58:43.947Z,10.10
2022-12-05T09:01:20.090Z,10.05
2022-12-05T09:03:48.240Z,8.90
2022-12-05T09:06:21.467Z,7.53
2022-12-05T09:08:49.470Z,7.72
2022-12-05T09:11:19.879Z,6.65
2022-12-05T09:13:47.815Z,6.57
2022-12-05T09:16:17.090Z,7.22
2022-12-05T09:18:44.967Z,6.20
2022-12-05T09:21:14.855Z,5.63
2022-12-05T09:23:41.901Z,6.00
2022-12-05T09:26:11.872Z,7.88
2022-12-05T09:28:39.609Z,17.00
2022-12-05T09:31:08.928Z,4.55
2022-12-05T09:33:37.242Z,18.83
2022-12-05T09:36:11.400Z,6.15
2022-12-05T09:38:39.249Z,5.10
2022-12-05T09:41:15.681Z,7.43
2022-12-05T09:43:58.223Z,6.03
2022-12-05T09:46:49.662Z,6.03
2022-12-05T09:49:16.485Z,5.28
2022-12-05T09:51:49.644Z,6.13
2022-12-05T09:54:21.489Z,5.25
2022-12-05T09:56:51.406Z,5.97
2022-12-05T09:59:21.227Z,5.90
2022-12-05T10:02:01.596Z,6.22
2022-12-05T10:04:39.066Z,6.95
2022-12-05T10:07:36.683Z,6.53
2022-12-05T10:10:20.130Z,7.47
2022-12-05T10:13:34.963Z,7.40
2022-12-05T10:16:24.788Z,6.95
2022-12-05T10:19:10.993Z,26.27
2022-12-05T10:21:53.493Z,8.02
2022-12-05T10:24:30.333Z,7.40
2022-12-05T10:27:03.985Z,8.25
2022-12-05T10:29:37.733Z,8.55
2022-12-05T10:32:13.358Z,8.85
2022-12-05T10:34:42.749Z,8.75
2022-12-05T10:37:19.616Z,8.95
2022-12-05T10:39:47.909Z,8.77
2022-12-05T10:42:23.269Z,8.82
2022-12-05T10:45:00.983Z,9.70
2022-12-05T10:47:27.952Z,9.05
2022-12-05T10:49:57.986Z,9.18
2022-12-05T10:52:25.072Z,8.93
2022-12-05T10:54:57.415Z,9.73
2022-12-05T10:57:27.551Z,9.52
2022-12-05T10:59:56.412Z,9.07
2022-12-05T11:02:32.204Z,9.10
2022-12-05T11:04:59.936Z,9.15
2022-12-05T11:07:31.707Z,8.13
2022-12-05T11:10:00.661Z,8.43
2022-12-05T11:12:38.134Z,7.95
2022-12-05T11:15:26.592Z,8.70
2022-12-05T11:17:56.426Z,8.10
2022-12-05T11:20:23.012Z,9.10
2022-12-05T11:22:55.034Z,8.57
2022-12-05T11:25:33.489Z,8.80
2022-12-05T11:28:16.663Z,7.75
2022-12-05T11:31:03.004Z,8.43
2022-12-05T11:33:35.747Z,8.57
2022-12-05T11:41:40.775Z,7.28
2022-12-05T11:44:26.732Z,7.10
2022-12-05T11:47:22.744Z,7.97
2022-12-05T11:50:14.137Z,7.75
2022-12-05T11:52:57.773Z,6.88
2022-12-05T11:55:46.780Z,7.25
2022-12-05T11:58:40.140Z,7.35
2022-12-05T12:01:10.365Z,7.70
2022-12-05T12:03:45.875Z,8.23
2022-12-05T12:06:43.806Z,8.07
2022-12-05T12:09:22.440Z,8.05
2022-12-05T12:12:14.002Z,7.68
2022-12-05T12:14:55.921Z,7.82
2022-12-05T12:17:38.872Z,7.50
2022-12-05T12:23:14.126Z,7.40
2022-12-05T12:25:59.701Z,6.28
2022-12-05T12:28:45.717Z,7.43
2022-12-05T12:31:12.476Z,7.03
2022-12-05T12:33:48.552Z,6.70
2022-12-05T12:36:53.935Z,6.78
2022-12-05T12:39:38.911Z,7.18
2022-12-05T12:42:32.315Z,6.78
2022-12-05T12:45:25.321Z,6.82
2022-12-05T12:50:23.477Z,6.53
2022-12-05T12:53:14.837Z,6.75
2022-12-05T12:55:50.240Z,6.38
2022-12-05T12:58:37.517Z,6.57
2022-12-05T13:01:25.244Z,5.90
2022-12-05T13:04:05.596Z,5.78
2022-12-05T13:06:40.831Z,6.45
2022-12-05T13:09:35.249Z,5.85
2022-12-05T13:12:07.872Z,6.05
2022-12-05T13:14:35.926Z,6.30
2022-12-05T13:17:05.970Z,5.60
2022-12-05T13:19:47.698Z,7.10
2022-12-05T13:22:16.925Z,8.05
2022-12-05T13:24:43.733Z,6.65
2022-12-05T13:27:17.270Z,6.18
2022-12-05T13:29:59.502Z,6.40
2022-12-05T13:32:36.763Z,6.63
2022-12-05T13:35:12.487Z,6.20
2022-12-05T13:38:05.698Z,6.20
2022-12-05T13:41:10.577Z,5.63
2022-12-05T13:43:49.748Z,5.55
2022-12-05T13:49:06.930Z,5.70
2022-12-05T13:51:37.840Z,5.97
2022-12-05T13:54:10.814Z,6.03
2022-12-05T13:56:48.762Z,5.82
2022-12-05T13:59:54.466Z,6.57
2022-12-05T14:02:43.313Z,6.15
2022-12-05T14:05:45.937Z,6.68
2022-12-05T14:08:30.679Z,6.15
2022-12-05T14:10:57.406Z,5.13
2022-12-05T14:13:24.165Z,5.50
2022-12-05T14:15:52.163Z,5.85
2022-12-05T14:18:42.352Z,5.25
2022-12-05T14:21:36.710Z,5.75
2022-12-05T14:24:10.680Z,4.95
2022-12-05T14:26:48.722Z,4.85
2022-12-05T14:29:52.773Z,4.68
2022-12-05T14:32:29.848Z,5.65
2022-12-05T14:35:12.775Z,5.88
2022-12-05T14:40:39.038Z,4.47
2022-12-05T14:43:25.970Z,4.60
2022-12-05T14:45:57.853Z,4.57
2022-12-05T14:48:36.635Z,5.05
2022-12-05T14:51:43.684Z,5.70
2022-12-05T14:54:12.652Z,5.10
2022-12-05T14:56:44.790Z,4.65
2022-12-05T14:59:32.037Z,4.53
2022-12-05T15:02:02.101Z,4.75
2022-12-05T15:04:37.482Z,4.72
2022-12-05T15:07:18.036Z,4.38
2022-12-05T15:10:03.846Z,5.10
2022-12-05T15:12:46.112Z,4.70
2022-12-05T15:15:31.211Z,4.07
2022-12-05T15:18:27.434Z,4.40
2022-12-05T15:21:22.121Z,6.00
2022-12-05T15:23:56.727Z,4.00
2022-12-05T15:26:48.309Z,3.92
2022-12-05T15:29:20.735Z,3.73
2022-12-05T15:31:53.185Z,3.58
2022-12-05T15:34:42.412Z,4.05
2022-12-05T15:37:42.487Z,3.60
2022-12-05T15:40:14.379Z,4.18
2022-12-05T15:42:42.529Z,3.45
2022-12-05T15:45:27.730Z,4.40
2022-12-05T15:48:12.472Z,3.92
2022-12-05T15:50:51.110Z,3.72
2022-12-05T15:53:37.002Z,3.75
2022-12-05T15:56:03.819Z,4.00
2022-12-05T15:58:39.281Z,4.35
2022-12-05T16:01:22.633Z,4.18
2022-12-05T16:04:00.448Z,3.80
2022-12-05T16:06:38.687Z,3.60
2022-12-05T16:09:11.595Z,4.07
2022-12-05T16:11:39.074Z,4.05
2022-12-05T16:14:07.588Z,4.38
2022-12-05T16:16:37.101Z,3.45
2022-12-05T16:19:17.314Z,3.80
2022-12-05T16:21:58.591Z,3.80
2022-12-05T16:24:31.224Z,4.20
2022-12-05T16:29:29.387Z,3.83
2022-12-05T16:31:57.875Z,4.60
2022-12-05T16:34:26.667Z,4.00
2022-12-05T16:36:55.894Z,3.75
2022-12-05T16:39:24.011Z,3.60
2022-12-05T16:41:51.303Z,4.20
2022-12-05T16:44:45.776Z,4.07
2022-12-05T16:47:41.704Z,3.78
2022-12-05T16:50:37.816Z,3.97
2022-12-05T16:53:07.832Z,3.67
2022-12-05T16:55:37.688Z,4.32
2022-12-05T16:58:05.200Z,5.15
2022-12-05T17:00:33.045Z,4.07
2022-12-05T17:03:18.756Z,3.65
2022-12-05T17:05:46.503Z,4.32
2022-12-05T17:08:13.243Z,3.90
2022-12-05T17:10:41.882Z,3.80
2022-12-05T17:13:12.571Z,4.05
2022-12-05T17:15:39.404Z,3.45
2022-12-05T17:18:17.760Z,3.65
2022-12-05T17:20:48.995Z,4.22
2022-12-05T17:23:16.179Z,4.28
2022-12-05T17:25:52.302Z,3.78
2022-12-05T17:28:19.148Z,3.75
2022-12-05T17:30:46.227Z,3.47
2022-12-05T17:33:14.894Z,3.50
2022-12-05T17:35:41.901Z,3.42
2022-12-05T17:38:10.656Z,3.90
2022-12-05T17:40:38.366Z,3.28
2022-12-05T17:43:06.199Z,3.90
2022-12-05T17:45:33.423Z,4.03
2022-12-05T17:48:00.206Z,3.70
2022-12-05T17:50:27.331Z,3.90
2022-12-05T17:52:56.377Z,3.80
2022-12-05T17:55:28.482Z,4.13
2022-12-05T17:57:55.898Z,4.38
2022-12-05T18:00:24.301Z,3.58
2022-12-05T18:02:52.587Z,3.97
2022-12-05T18:05:19.992Z,4.13
2022-12-05T18:07:47.481Z,3.95
2022-12-05T18:10:17.562Z,3.90
2022-12-05T18:12:44.429Z,4.25
2022-12-05T18:15:12.211Z,3.75
2022-12-05T18:17:39.166Z,4.93
2022-12-05T18:20:08.392Z,4.22
2022-12-05T18:22:35.145Z,4.68
2022-12-05T18:25:03.534Z,4.93
2022-12-05T18:27:31.479Z,4.88
2022-12-05T18:29:58.211Z,4.78
2022-12-05T18:32:27.942Z,5.50
2022-12-05T18:34:54.729Z,4.60
2022-12-05T18:37:22.358Z,5.15
2022-12-05T18:39:49.074Z,4.72
2022-12-05T18:42:15.720Z,4.28
2022-12-05T18:44:42.851Z,5.30
2022-12-05T18:47:09.474Z,5.00
2022-12-05T18:49:36.305Z,5.38
2022-12-05T18:52:03.024Z,5.65
2022-12-05T18:54:29.684Z,6.28
2022-12-05T18:56:56.337Z,5.75
2022-12-05T18:59:23.012Z,5.75
2022-12-05T19:01:50.010Z,5.97
2022-12-05T19:04:20.518Z,5.93
2022-12-05T19:07:13.537Z,5.78
2022-12-05T19:09:40.243Z,6.30
2022-12-05T19:12:07.033Z,7.35
2022-12-05T19:14:35.162Z,7.28
2022-12-05T19:17:02.102Z,5.72
2022-12-05T19:19:29.464Z,5.78
2022-12-05T19:21:56.241Z,6.85
2022-12-05T19:24:22.891Z,7.43
2022-12-05T19:26:49.745Z,6.75
2022-12-05T19:29:17.298Z,7.53
2022-12-05T19:31:44.686Z,7.03
2022-12-05T19:34:12.074Z,8.02
2022-12-05T19:36:44.593Z,7.55
2022-12-05T19:39:20.898Z,7.00
2022-12-05T19:41:48.246Z,6.95
2022-12-05T19:44:15.440Z,6.90
2022-12-05T19:46:42.662Z,7.45
2022-12-05T19:49:13.955Z,7.15
2022-12-05T19:51:41.232Z,7.80
2022-12-05T19:54:09.185Z,7.82
2022-12-05T19:56:36.969Z,6.63
2022-12-05T19:59:05.432Z,8.40
2022-12-05T20:01:37.637Z,7.28
2022-12-05T20:04:07.662Z,7.00
2022-12-05T20:06:37.370Z,6.65
2022-12-05T20:09:04.763Z,6.53
2022-12-05T20:11:31.885Z,7.22
2022-12-05T20:14:00.844Z,7.10
2022-12-05T20:16:28.445Z,7.43
2022-12-05T20:19:00.172Z,8.55
2022-12-05T20:21:30.043Z,7.72
2022-12-05T20:24:00.742Z,7.85
2022-12-05T20:26:30.230Z,7.43
2022-12-05T20:28:58.664Z,7.47
2022-12-05T20:31:31.112Z,8.57
2022-12-05T20:33:57.940Z,7.80
2022-12-05T20:36:27.368Z,8.40
2022-12-05T20:39:06.586Z,8.63
2022-12-05T20:41:33.409Z,9.32
2022-12-05T20:44:02.360Z,8.07
2022-12-05T20:46:30.024Z,8.60
2022-12-05T20:48:57.069Z,8.45
2022-12-05T20:51:29.593Z,7.97
2022-12-05T20:53:58.304Z,9.23
2022-12-05T20:56:28.257Z,7.65
2022-12-05T20:58:57.345Z,8.30
2022-12-05T21:01:25.721Z,8.90
2022-12-05T21:03:53.555Z,8.27
2022-12-05T21:06:27.252Z,7.72
2022-12-05T21:08:54.606Z,9.18
2022-12-05T21:11:22.940Z,8.52
2022-12-05T21:13:49.642Z,7.43
2022-12-05T21:16:19.462Z,8.10
2022-12-05T21:18:46.930Z,8.00
2022-12-05T21:21:19.635Z,8.18
2022-12-05T21:26:16.692Z,7.72
2022-12-05T21:28:44.498Z,7.32
2022-12-05T21:31:12.578Z,8.40
2022-12-05T21:33:40.545Z,8.00
2022-12-05T21:36:08.229Z,8.95
2022-12-05T21:38:35.473Z,8.88
2022-12-05T21:41:03.749Z,8.13
2022-12-05T21:43:30.785Z,8.77
2022-12-05T21:45:57.623Z,8.13
2022-12-05T21:48:25.066Z,8.95
2022-12-05T21:50:51.797Z,8.50
2022-12-05T21:53:19.499Z,9.05
2022-12-05T21:55:46.292Z,8.38
2022-12-05T21:58:13.673Z,8.55
2022-12-05T22:00:40.521Z,8.23
2022-12-05T22:03:07.485Z,8.15
2022-12-05T22:05:34.298Z,7.72
2022-12-05T22:08:05.967Z,8.77
2022-12-05T22:10:36.565Z,8.23
2022-12-05T22:13:03.642Z,8.02
2022-12-05T22:15:30.630Z,8.20
2022-12-05T22:17:57.410Z,9.68
2022-12-05T22:20:24.239Z,9.38
2022-12-05T22:22:50.926Z,8.15
2022-12-05T22:25:17.668Z,8.82
2022-12-05T22:27:44.352Z,8.75
2022-12-05T22:30:11.324Z,9.85
2022-12-05T22:32:37.950Z,9.25
2022-12-05T22:35:04.801Z,8.55
2022-12-05T22:37:31.740Z,10.43
2022-12-05T22:39:59.011Z,9.50
2022-12-05T22:42:27.209Z,10.23
2022-12-05T22:44:53.853Z,9.65
2022-12-05T22:47:20.650Z,10.13
2022-12-05T22:49:47.296Z,9.00
2022-12-05T22:52:14.676Z,9.10
2022-12-05T22:54:41.352Z,9.85
2022-12-05T22:57:08.090Z,9.60
2022-12-05T22:59:35.116Z,10.25
2022-12-05T23:02:01.805Z,9.20
2022-12-05T23:04:28.553Z,10.25
2022-12-05T23:06:55.337Z,10.50
2022-12-05T23:09:22.122Z,9.60
2022-12-05T23:11:50.425Z,10.75
2022-12-05T23:14:17.110Z,10.02
2022-12-05T23:16:43.866Z,10.38
2022-12-05T23:19:10.722Z,10.20
2022-12-05T23:21:39.755Z,10.25
2022-12-05T23:24:09.140Z,9.93
2022-12-05T23:26:45.728Z,9.65
2022-12-05T23:29:14.512Z,10.00
2022-12-05T23:31:42.392Z,10.35
2022-12-05T23:34:10.046Z,10.20
2022-12-05T23:36:37.145Z,9.95
2022-12-05T23:39:05.563Z,10.30
2022-12-05T23:41:32.301Z,9.80
2022-12-05T23:43:59.209Z,9.18
2022-12-05T23:46:28.095Z,9.45
2022-12-05T23:48:55.201Z,9.35
2022-12-05T23:51:27.834Z,8.45
2022-12-05T23:56:28.617Z,8.18
2022-12-05T23:58:55.921Z,8.40
